sensor_id;sensor_type;location;lat;lon;timestamp;pressure;altitude;pressure_sealevel;temperature;humidity
6435;BME280;3250;42.694;23.278;2023-07-09T00:00:10;95253.72;;;19.28;70.93
6435;BME280;3250;42.694;23.278;2023-07-09T00:02:39;95235.66;;;19.08;71.17
6435;BME280;3250;42.694;23.278;2023-07-09T00:05:05;95239.34;;;19.02;71.74
6435;BME280;3250;42.694;23.278;2023-07-09T00:07:32;95256.94;;;19.03;71.89
6435;BME280;3250;42.694;23.278;2023-07-09T00:09:58;95251.81;;;18.96;72.70
6435;BME280;3250;42.694;23.278;2023-07-09T00:12:24;95244.34;;;18.93;73.10
6435;BME280;3250;42.694;23.278;2023-07-09T00:14:51;95247.75;;;18.89;73.71
6435;BME280;3250;42.694;23.278;2023-07-09T00:17:31;95233.16;;;18.69;73.99
6435;BME280;3250;42.694;23.278;2023-07-09T00:19:58;95227.47;;;18.61;74.16
6435;BME280;3250;42.694;23.278;2023-07-09T00:22:24;95240.31;;;18.64;73.69
6435;BME280;3250;42.694;23.278;2023-07-09T00:24:52;95252.09;;;18.68;73.27
6435;BME280;3250;42.694;23.278;2023-07-09T00:27:23;95237.59;;;18.59;73.19
6435;BME280;3250;42.694;23.278;2023-07-09T00:29:51;95206.97;;;18.39;72.75
6435;BME280;3250;42.694;23.278;2023-07-09T00:32:19;95252.59;;;18.65;72.53
6435;BME280;3250;42.694;23.278;2023-07-09T00:34:50;95233.31;;;18.58;72.51
6435;BME280;3250;42.694;23.278;2023-07-09T00:37:18;95246.19;;;18.66;72.44
6435;BME280;3250;42.694;23.278;2023-07-09T00:39:45;95241.44;;;18.68;71.87
6435;BME280;3250;42.694;23.278;2023-07-09T00:42:16;95224.56;;;18.62;71.85
6435;BME280;3250;42.694;23.278;2023-07-09T00:44:53;95241.34;;;18.63;70.93
6435;BME280;3250;42.694;23.278;2023-07-09T00:50:21;95230.75;;;18.68;71.86
6435;BME280;3250;42.694;23.278;2023-07-09T00:52:59;95228.59;;;18.65;70.92
6435;BME280;3250;42.694;23.278;2023-07-09T00:55:32;95228.28;;;18.61;71.31
6435;BME280;3250;42.694;23.278;2023-07-09T00:58:05;95210.97;;;18.64;72.08
6435;BME280;3250;42.694;23.278;2023-07-09T01:00:44;95224.44;;;18.79;71.58
6435;BME280;3250;42.694;23.278;2023-07-09T01:03:19;95229.03;;;18.83;71.41
6435;BME280;3250;42.694;23.278;2023-07-09T01:05:48;95223.97;;;18.87;70.64
6435;BME280;3250;42.694;23.278;2023-07-09T01:08:20;95227.47;;;18.88;70.60
6435;BME280;3250;42.694;23.278;2023-07-09T01:10:46;95212.97;;;18.78;70.89
6435;BME280;3250;42.694;23.278;2023-07-09T01:13:12;95231.75;;;18.89;70.93
6435;BME280;3250;42.694;23.278;2023-07-09T01:15:38;95194.75;;;18.70;71.42
6435;BME280;3250;42.694;23.278;2023-07-09T01:18:04;95202.25;;;18.73;71.86
6435;BME280;3250;42.694;23.278;2023-07-09T01:20:30;95216.44;;;18.79;72.67
6435;BME280;3250;42.694;23.278;2023-07-09T01:22:56;95212.44;;;18.76;72.39
6435;BME280;3250;42.694;23.278;2023-07-09T01:25:23;95211.63;;;18.76;72.00
6435;BME280;3250;42.694;23.278;2023-07-09T01:27:49;95220.69;;;18.75;72.63
6435;BME280;3250;42.694;23.278;2023-07-09T01:30:24;95196.50;;;18.60;72.51
6435;BME280;3250;42.694;23.278;2023-07-09T01:32:51;95210.19;;;18.68;73.27
6435;BME280;3250;42.694;23.278;2023-07-09T01:35:19;95188.91;;;18.46;73.96
6435;BME280;3250;42.694;23.278;2023-07-09T01:37:45;95201.84;;;18.60;73.49
6435;BME280;3250;42.694;23.278;2023-07-09T01:40:13;95190.44;;;18.42;74.22
6435;BME280;3250;42.694;23.278;2023-07-09T01:42:40;95211.63;;;18.27;73.90
6435;BME280;3250;42.694;23.278;2023-07-09T01:45:07;95209.50;;;18.07;74.67
6435;BME280;3250;42.694;23.278;2023-07-09T01:47:32;95212.19;;;18.07;75.67
6435;BME280;3250;42.694;23.278;2023-07-09T01:49:58;95198.63;;;18.09;75.40
6435;BME280;3250;42.694;23.278;2023-07-09T01:52:26;95194.09;;;18.09;74.98
6435;BME280;3250;42.694;23.278;2023-07-09T01:54:53;95209.84;;;18.11;74.77
6435;BME280;3250;42.694;23.278;2023-07-09T01:57:19;95223.78;;;18.18;74.61
6435;BME280;3250;42.694;23.278;2023-07-09T01:59:51;95222.09;;;18.12;74.95
6435;BME280;3250;42.694;23.278;2023-07-09T02:02:18;95229.63;;;18.15;74.98
6435;BME280;3250;42.694;23.278;2023-07-09T02:04:54;95231.16;;;18.11;74.58
6435;BME280;3250;42.694;23.278;2023-07-09T02:07:22;95227.38;;;18.07;74.45
6435;BME280;3250;42.694;23.278;2023-07-09T02:09:48;95232.16;;;18.05;75.24
6435;BME280;3250;42.694;23.278;2023-07-09T02:12:15;95228.69;;;18.04;75.17
6435;BME280;3250;42.694;23.278;2023-07-09T02:14:41;95209.03;;;17.89;74.86
6435;BME280;3250;42.694;23.278;2023-07-09T02:17:08;95226.94;;;17.93;74.87
6435;BME280;3250;42.694;23.278;2023-07-09T02:19:33;95221.00;;;17.86;75.32
6435;BME280;3250;42.694;23.278;2023-07-09T02:21:59;95196.06;;;17.76;76.37
6435;BME280;3250;42.694;23.278;2023-07-09T02:24:24;95227.13;;;17.87;76.16
6435;BME280;3250;42.694;23.278;2023-07-09T02:26:52;95231.69;;;17.91;76.35
6435;BME280;3250;42.694;23.278;2023-07-09T02:29:18;95215.22;;;17.73;75.37
6435;BME280;3250;42.694;23.278;2023-07-09T02:31:45;95216.75;;;17.68;75.52
6435;BME280;3250;42.694;23.278;2023-07-09T02:34:10;95236.66;;;17.83;75.66
6435;BME280;3250;42.694;23.278;2023-07-09T02:36:36;95235.16;;;17.70;74.93
6435;BME280;3250;42.694;23.278;2023-07-09T02:39:02;95242.63;;;17.73;75.36
6435;BME280;3250;42.694;23.278;2023-07-09T02:41:27;95217.56;;;17.52;76.05
6435;BME280;3250;42.694;23.278;2023-07-09T02:43:52;95245.00;;;17.69;76.03
6435;BME280;3250;42.694;23.278;2023-07-09T02:46:18;95250.31;;;17.69;76.16
6435;BME280;3250;42.694;23.278;2023-07-09T02:48:44;95266.53;;;17.68;76.24
6435;BME280;3250;42.694;23.278;2023-07-09T02:51:09;95262.84;;;17.69;77.00
6435;BME280;3250;42.694;23.278;2023-07-09T02:53:35;95264.88;;;17.62;77.00
6435;BME280;3250;42.694;23.278;2023-07-09T02:56:00;95250.00;;;17.49;77.05
6435;BME280;3250;42.694;23.278;2023-07-09T02:58:25;95257.25;;;17.54;77.19
6435;BME280;3250;42.694;23.278;2023-07-09T03:00:51;95264.50;;;17.58;77.71
6435;BME280;3250;42.694;23.278;2023-07-09T03:03:20;95273.78;;;17.56;77.53
6435;BME280;3250;42.694;23.278;2023-07-09T03:05:46;95249.53;;;17.35;77.32
6435;BME280;3250;42.694;23.278;2023-07-09T03:08:12;95255.91;;;17.34;78.26
6435;BME280;3250;42.694;23.278;2023-07-09T03:10:38;95252.91;;;17.31;78.28
6435;BME280;3250;42.694;23.278;2023-07-09T03:13:04;95257.00;;;17.39;78.45
6435;BME280;3250;42.694;23.278;2023-07-09T03:15:30;95272.59;;;17.47;78.97
6435;BME280;3250;42.694;23.278;2023-07-09T03:17:56;95277.94;;;17.47;79.33
6435;BME280;3250;42.694;23.278;2023-07-09T03:20:21;95274.75;;;17.50;79.10
6435;BME280;3250;42.694;23.278;2023-07-09T03:22:47;95273.38;;;17.47;78.49
6435;BME280;3250;42.694;23.278;2023-07-09T03:25:12;95278.16;;;17.45;78.49
6435;BME280;3250;42.694;23.278;2023-07-09T03:27:38;95285.41;;;17.50;77.49
6435;BME280;3250;42.694;23.278;2023-07-09T03:30:03;95278.22;;;17.50;77.98
6435;BME280;3250;42.694;23.278;2023-07-09T03:32:30;95284.06;;;17.64;77.12
6435;BME280;3250;42.694;23.278;2023-07-09T03:34:55;95287.59;;;17.69;77.90
6435;BME280;3250;42.694;23.278;2023-07-09T03:37:21;95283.47;;;17.79;77.03
6435;BME280;3250;42.694;23.278;2023-07-09T03:39:46;95284.09;;;17.86;77.07
6435;BME280;3250;42.694;23.278;2023-07-09T03:42:11;95283.81;;;18.04;77.21
6435;BME280;3250;42.694;23.278;2023-07-09T03:44:37;95278.75;;;18.02;75.39
6435;BME280;3250;42.694;23.278;2023-07-09T03:47:03;95262.03;;;18.07;76.18
6435;BME280;3250;42.694;23.278;2023-07-09T03:49:28;95287.66;;;18.35;75.06
6435;BME280;3250;42.694;23.278;2023-07-09T03:51:54;95290.25;;;18.52;75.90
6435;BME280;3250;42.694;23.278;2023-07-09T03:54:19;95294.41;;;18.59;73.70
6435;BME280;3250;42.694;23.278;2023-07-09T03:56:45;95279.19;;;18.60;73.70
6435;BME280;3250;42.694;23.278;2023-07-09T03:59:10;95271.81;;;18.67;73.01
6435;BME280;3250;42.694;23.278;2023-07-09T04:01:35;95279.47;;;18.85;73.19
6435;BME280;3250;42.694;23.278;2023-07-09T04:04:01;95289.31;;;19.11;73.96
6435;BME280;3250;42.694;23.278;2023-07-09T04:06:26;95301.91;;;19.16;71.25
6435;BME280;3250;42.694;23.278;2023-07-09T04:08:52;95292.72;;;19.34;73.39
6435;BME280;3250;42.694;23.278;2023-07-09T04:11:17;95292.81;;;19.44;71.48
6435;BME280;3250;42.694;23.278;2023-07-09T04:13:42;95286.78;;;19.53;70.97
6435;BME280;3250;42.694;23.278;2023-07-09T04:16:09;95307.88;;;19.92;70.66
6435;BME280;3250;42.694;23.278;2023-07-09T04:18:35;95301.81;;;20.07;71.30
6435;BME280;3250;42.694;23.278;2023-07-09T04:21:01;95288.81;;;20.25;70.34
6435;BME280;3250;42.694;23.278;2023-07-09T04:23:27;95282.72;;;20.35;71.36
6435;BME280;3250;42.694;23.278;2023-07-09T04:25:53;95297.56;;;20.58;69.22
6435;BME280;3250;42.694;23.278;2023-07-09T04:28:18;95309.69;;;20.91;69.90
6435;BME280;3250;42.694;23.278;2023-07-09T04:30:51;95314.00;;;21.12;68.94
6435;BME280;3250;42.694;23.278;2023-07-09T04:33:17;95313.28;;;21.32;69.04
6435;BME280;3250;42.694;23.278;2023-07-09T04:35:47;95317.84;;;21.57;69.52
6435;BME280;3250;42.694;23.278;2023-07-09T04:38:14;95287.00;;;21.54;69.78
6435;BME280;3250;42.694;23.278;2023-07-09T04:40:39;95326.69;;;22.03;68.16
6435;BME280;3250;42.694;23.278;2023-07-09T04:43:05;95313.78;;;22.10;66.14
6435;BME280;3250;42.694;23.278;2023-07-09T04:45:30;95297.38;;;22.27;63.79
6435;BME280;3250;42.694;23.278;2023-07-09T04:47:56;95335.09;;;22.66;62.35
6435;BME280;3250;42.694;23.278;2023-07-09T04:50:21;95327.28;;;22.79;60.53
6435;BME280;3250;42.694;23.278;2023-07-09T04:52:47;95320.91;;;23.14;61.67
6435;BME280;3250;42.694;23.278;2023-07-09T04:55:12;95322.56;;;23.54;61.07
6435;BME280;3250;42.694;23.278;2023-07-09T04:57:38;95295.75;;;23.78;58.71
6435;BME280;3250;42.694;23.278;2023-07-09T05:00:04;95316.00;;;24.28;58.54
6435;BME280;3250;42.694;23.278;2023-07-09T05:02:33;95310.50;;;24.62;57.13
6435;BME280;3250;42.694;23.278;2023-07-09T05:04:58;95325.47;;;24.73;52.32
6435;BME280;3250;42.694;23.278;2023-07-09T05:07:24;95310.47;;;24.86;54.54
6435;BME280;3250;42.694;23.278;2023-07-09T05:09:50;95308.28;;;25.31;55.00
6435;BME280;3250;42.694;23.278;2023-07-09T05:12:15;95342.59;;;25.95;52.74
6435;BME280;3250;42.694;23.278;2023-07-09T05:14:41;95334.34;;;26.38;51.13
6435;BME280;3250;42.694;23.278;2023-07-09T05:17:07;95345.97;;;26.79;49.11
6435;BME280;3250;42.694;23.278;2023-07-09T05:19:33;95329.34;;;27.13;49.89
6435;BME280;3250;42.694;23.278;2023-07-09T05:21:58;95328.41;;;27.67;48.80
6435;BME280;3250;42.694;23.278;2023-07-09T05:24:24;95329.94;;;27.82;47.51
6435;BME280;3250;42.694;23.278;2023-07-09T05:26:49;95345.53;;;28.30;48.20
6435;BME280;3250;42.694;23.278;2023-07-09T05:29:15;95333.44;;;28.67;45.98
6435;BME280;3250;42.694;23.278;2023-07-09T05:31:40;95327.56;;;29.13;44.35
6435;BME280;3250;42.694;23.278;2023-07-09T05:34:07;95320.91;;;29.53;43.88
6435;BME280;3250;42.694;23.278;2023-07-09T05:36:33;95345.66;;;29.95;42.87
6435;BME280;3250;42.694;23.278;2023-07-09T05:38:59;95318.81;;;30.02;41.87
6435;BME280;3250;42.694;23.278;2023-07-09T05:41:24;95327.19;;;30.52;41.53
6435;BME280;3250;42.694;23.278;2023-07-09T05:43:51;95340.25;;;30.97;40.39
6435;BME280;3250;42.694;23.278;2023-07-09T05:46:17;95340.25;;;30.97;39.92
6435;BME280;3250;42.694;23.278;2023-07-09T05:48:43;95332.72;;;31.02;41.16
6435;BME280;3250;42.694;23.278;2023-07-09T05:51:08;95352.34;;;31.17;40.86
6435;BME280;3250;42.694;23.278;2023-07-09T05:53:33;95353.41;;;31.24;38.94
6435;BME280;3250;42.694;23.278;2023-07-09T05:55:59;95340.47;;;31.21;39.94
6435;BME280;3250;42.694;23.278;2023-07-09T05:58:24;95344.69;;;31.10;41.44
6435;BME280;3250;42.694;23.278;2023-07-09T06:00:51;95331.59;;;31.03;41.33
6435;BME280;3250;42.694;23.278;2023-07-09T06:03:24;95348.94;;;30.90;40.91
6435;BME280;3250;42.694;23.278;2023-07-09T06:05:50;95346.53;;;30.42;41.45
6435;BME280;3250;42.694;23.278;2023-07-09T06:08:17;95344.69;;;30.17;41.27
6435;BME280;3250;42.694;23.278;2023-07-09T06:13:21;95310.78;;;29.02;43.03
6435;BME280;3250;42.694;23.278;2023-07-09T06:15:48;95329.47;;;28.73;43.72
6435;BME280;3250;42.694;23.278;2023-07-09T06:18:14;95318.59;;;28.25;45.44
6435;BME280;3250;42.694;23.278;2023-07-09T06:20:39;95327.06;;;28.32;47.26
6435;BME280;3250;42.694;23.278;2023-07-09T06:23:05;95323.72;;;28.26;44.58
6435;BME280;3250;42.694;23.278;2023-07-09T06:25:30;95311.16;;;28.08;45.12
6435;BME280;3250;42.694;23.278;2023-07-09T06:27:57;95310.13;;;28.18;47.55
6435;BME280;3250;42.694;23.278;2023-07-09T06:30:22;95324.06;;;28.11;45.97
6435;BME280;3250;42.694;23.278;2023-07-09T06:32:47;95315.88;;;28.02;47.20
6435;BME280;3250;42.694;23.278;2023-07-09T06:35:13;95323.97;;;28.16;45.01
6435;BME280;3250;42.694;23.278;2023-07-09T06:37:38;95332.03;;;28.38;46.67
6435;BME280;3250;42.694;23.278;2023-07-09T06:40:04;95322.56;;;28.58;45.31
6435;BME280;3250;42.694;23.278;2023-07-09T06:42:32;95286.56;;;28.66;46.60
6435;BME280;3250;42.694;23.278;2023-07-09T06:44:58;95315.59;;;29.05;44.68
6435;BME280;3250;42.694;23.278;2023-07-09T06:47:23;95333.16;;;29.25;44.48
6435;BME280;3250;42.694;23.278;2023-07-09T06:49:48;95326.97;;;29.42;45.41
6435;BME280;3250;42.694;23.278;2023-07-09T06:52:14;95319.47;;;29.47;44.22
6435;BME280;3250;42.694;23.278;2023-07-09T06:54:39;95328.88;;;29.58;43.80
6435;BME280;3250;42.694;23.278;2023-07-09T06:57:05;95319.16;;;29.66;43.10
6435;BME280;3250;42.694;23.278;2023-07-09T06:59:30;95326.81;;;29.64;41.58
6435;BME280;3250;42.694;23.278;2023-07-09T07:01:55;95324.91;;;29.64;45.08
6435;BME280;3250;42.694;23.278;2023-07-09T07:04:21;95311.94;;;29.27;41.82
6435;BME280;3250;42.694;23.278;2023-07-09T07:06:46;95303.59;;;28.58;42.38
6435;BME280;3250;42.694;23.278;2023-07-09T07:09:11;95314.16;;;28.68;46.91
6435;BME280;3250;42.694;23.278;2023-07-09T07:11:37;95322.91;;;29.05;44.99
6435;BME280;3250;42.694;23.278;2023-07-09T07:14:02;95306.22;;;29.37;44.48
6435;BME280;3250;42.694;23.278;2023-07-09T07:16:28;95314.81;;;29.31;42.08
6435;BME280;3250;42.694;23.278;2023-07-09T07:18:53;95318.38;;;29.48;44.19
6435;BME280;3250;42.694;23.278;2023-07-09T07:21:18;95311.63;;;29.80;43.06
6435;BME280;3250;42.694;23.278;2023-07-09T07:23:44;95309.84;;;29.93;42.71
6435;BME280;3250;42.694;23.278;2023-07-09T07:26:09;95321.53;;;30.02;44.84
6435;BME280;3250;42.694;23.278;2023-07-09T07:28:35;95327.09;;;30.14;45.48
6435;BME280;3250;42.694;23.278;2023-07-09T07:31:03;95321.63;;;30.31;42.76
6435;BME280;3250;42.694;23.278;2023-07-09T07:33:28;95293.50;;;30.27;42.12
6435;BME280;3250;42.694;23.278;2023-07-09T07:35:54;95315.41;;;30.31;40.97
6435;BME280;3250;42.694;23.278;2023-07-09T07:38:19;95281.59;;;29.77;39.28
6435;BME280;3250;42.694;23.278;2023-07-09T07:40:45;95304.28;;;30.07;41.72
6435;BME280;3250;42.694;23.278;2023-07-09T07:43:10;95296.63;;;29.22;42.82
6435;BME280;3250;42.694;23.278;2023-07-09T07:45:40;95306.84;;;29.51;44.95
6435;BME280;3250;42.694;23.278;2023-07-09T07:48:05;95285.44;;;29.76;45.50
6435;BME280;3250;42.694;23.278;2023-07-09T07:50:31;95309.06;;;30.18;44.13
6435;BME280;3250;42.694;23.278;2023-07-09T07:52:56;95300.00;;;30.52;42.48
6435;BME280;3250;42.694;23.278;2023-07-09T07:55:21;95314.94;;;30.75;41.81
6435;BME280;3250;42.694;23.278;2023-07-09T07:57:47;95315.16;;;30.91;42.71
6435;BME280;3250;42.694;23.278;2023-07-09T08:00:13;95305.97;;;30.75;40.23
6435;BME280;3250;42.694;23.278;2023-07-09T08:02:39;95285.78;;;30.00;40.96
6435;BME280;3250;42.694;23.278;2023-07-09T08:05:04;95301.88;;;29.88;41.96
6435;BME280;3250;42.694;23.278;2023-07-09T08:07:30;95288.34;;;29.62;41.67
6435;BME280;3250;42.694;23.278;2023-07-09T08:09:56;95302.88;;;29.75;43.71
6435;BME280;3250;42.694;23.278;2023-07-09T08:12:21;95285.63;;;29.53;42.79
6435;BME280;3250;42.694;23.278;2023-07-09T08:14:47;95293.16;;;29.48;41.74
6435;BME280;3250;42.694;23.278;2023-07-09T08:17:12;95274.53;;;28.41;42.22
6435;BME280;3250;42.694;23.278;2023-07-09T08:19:52;95281.09;;;28.88;44.56
6435;BME280;3250;42.694;23.278;2023-07-09T08:22:19;95278.06;;;29.07;43.74
6435;BME280;3250;42.694;23.278;2023-07-09T08:24:50;95256.28;;;29.38;44.52
6435;BME280;3250;42.694;23.278;2023-07-09T08:27:16;95273.81;;;29.58;42.86
6435;BME280;3250;42.694;23.278;2023-07-09T08:29:42;95263.09;;;29.61;44.73
6435;BME280;3250;42.694;23.278;2023-07-09T08:32:09;95283.03;;;29.91;46.31
6435;BME280;3250;42.694;23.278;2023-07-09T08:34:35;95238.63;;;29.87;44.18
6435;BME280;3250;42.694;23.278;2023-07-09T08:37:01;95284.22;;;30.28;44.23
6435;BME280;3250;42.694;23.278;2023-07-09T08:39:26;95273.00;;;30.38;41.66
6435;BME280;3250;42.694;23.278;2023-07-09T08:41:58;95263.41;;;29.77;46.06
6435;BME280;3250;42.694;23.278;2023-07-09T08:47:06;95283.00;;;30.17;46.13
6435;BME280;3250;42.694;23.278;2023-07-09T08:52:30;95293.25;;;30.58;42.71
6435;BME280;3250;42.694;23.278;2023-07-09T08:55:01;95286.50;;;30.64;44.95
6435;BME280;3250;42.694;23.278;2023-07-09T08:57:33;95291.91;;;30.73;43.55
6435;BME280;3250;42.694;23.278;2023-07-09T09:00:37;95284.69;;;30.77;41.27
6435;BME280;3250;42.694;23.278;2023-07-09T09:05:51;95279.25;;;30.77;43.70
6435;BME280;3250;42.694;23.278;2023-07-09T09:08:44;95290.84;;;30.95;42.46
6435;BME280;3250;42.694;23.278;2023-07-09T09:14:00;95278.31;;;31.02;42.15
6435;BME280;3250;42.694;23.278;2023-07-09T09:16:35;95272.53;;;31.04;43.24
6435;BME280;3250;42.694;23.278;2023-07-09T09:19:18;95280.44;;;30.67;42.28
6435;BME280;3250;42.694;23.278;2023-07-09T09:21:46;95279.03;;;30.61;43.64
6435;BME280;3250;42.694;23.278;2023-07-09T09:24:20;95290.31;;;30.72;42.39
6435;BME280;3250;42.694;23.278;2023-07-09T09:26:48;95281.41;;;30.63;42.50
6435;BME280;3250;42.694;23.278;2023-07-09T09:29:16;95292.97;;;30.43;41.36
6435;BME280;3250;42.694;23.278;2023-07-09T09:31:45;95264.16;;;30.12;43.17
6435;BME280;3250;42.694;23.278;2023-07-09T09:34:28;95293.94;;;30.38;44.26
6435;BME280;3250;42.694;23.278;2023-07-09T09:36:58;95262.72;;;30.15;42.98
6435;BME280;3250;42.694;23.278;2023-07-09T09:39:24;95249.28;;;30.18;44.57
6435;BME280;3250;42.694;23.278;2023-07-09T09:41:53;95280.50;;;30.42;42.06
6435;BME280;3250;42.694;23.278;2023-07-09T09:44:24;95271.44;;;30.29;41.53
6435;BME280;3250;42.694;23.278;2023-07-09T09:46:49;95266.34;;;30.19;45.31
6435;BME280;3250;42.694;23.278;2023-07-09T09:49:16;95256.97;;;30.08;44.81
6435;BME280;3250;42.694;23.278;2023-07-09T09:51:44;95274.19;;;30.20;42.17
6435;BME280;3250;42.694;23.278;2023-07-09T09:54:21;95253.81;;;29.97;43.79
6435;BME280;3250;42.694;23.278;2023-07-09T09:56:48;95272.63;;;30.11;45.33
6435;BME280;3250;42.694;23.278;2023-07-09T09:59:27;95267.69;;;29.87;43.18
6435;BME280;3250;42.694;23.278;2023-07-09T10:02:05;95259.59;;;29.70;45.61
6435;BME280;3250;42.694;23.278;2023-07-09T10:04:38;95262.94;;;29.58;42.78
6435;BME280;3250;42.694;23.278;2023-07-09T10:07:07;95253.69;;;29.50;46.20
6435;BME280;3250;42.694;23.278;2023-07-09T10:09:47;95259.28;;;29.54;46.22
6435;BME280;3250;42.694;23.278;2023-07-09T10:14:53;95261.38;;;29.48;44.63
6435;BME280;3250;42.694;23.278;2023-07-09T10:17:51;95224.31;;;29.18;44.29
6435;BME280;3250;42.694;23.278;2023-07-09T10:25:41;95254.16;;;29.26;44.62
6435;BME280;3250;42.694;23.278;2023-07-09T10:33:36;95221.47;;;29.14;45.97
6435;BME280;3250;42.694;23.278;2023-07-09T10:39:32;95247.78;;;29.05;44.11
6435;BME280;3250;42.694;23.278;2023-07-09T10:42:00;95237.56;;;28.94;45.72
6435;BME280;3250;42.694;23.278;2023-07-09T10:44:32;95184.09;;;28.20;44.72
6435;BME280;3250;42.694;23.278;2023-07-09T10:47:03;95245.56;;;28.50;45.80
6435;BME280;3250;42.694;23.278;2023-07-09T10:49:36;95207.06;;;28.23;42.52
6435;BME280;3250;42.694;23.278;2023-07-09T10:52:07;95239.13;;;28.38;44.24
6435;BME280;3250;42.694;23.278;2023-07-09T10:57:46;95237.09;;;28.43;44.24
6435;BME280;3250;42.694;23.278;2023-07-09T11:00:31;95241.72;;;28.43;44.41
6435;BME280;3250;42.694;23.278;2023-07-09T11:03:05;95212.00;;;28.21;43.87
6435;BME280;3250;42.694;23.278;2023-07-09T11:05:38;95228.00;;;28.39;44.25
6435;BME280;3250;42.694;23.278;2023-07-09T11:08:16;95219.53;;;28.32;44.48
6435;BME280;3250;42.694;23.278;2023-07-09T11:11:03;95231.38;;;28.45;44.11
6435;BME280;3250;42.694;23.278;2023-07-09T11:13:39;95238.06;;;28.47;43.86
6435;BME280;3250;42.694;23.278;2023-07-09T11:16:08;95225.63;;;28.46;44.16
6435;BME280;3250;42.694;23.278;2023-07-09T11:18:37;95219.53;;;28.32;44.48
6435;BME280;3250;42.694;23.278;2023-07-09T11:21:21;95227.19;;;28.39;45.75
6435;BME280;3250;42.694;23.278;2023-07-09T11:23:51;95244.59;;;28.46;45.13
6435;BME280;3250;42.694;23.278;2023-07-09T11:26:29;95237.25;;;28.47;46.17
6435;BME280;3250;42.694;23.278;2023-07-09T11:34:18;95209.06;;;28.57;45.22
6435;BME280;3250;42.694;23.278;2023-07-09T11:36:59;95233.19;;;28.75;47.39
6435;BME280;3250;42.694;23.278;2023-07-09T11:39:42;95223.44;;;28.74;45.76
6435;BME280;3250;42.694;23.278;2023-07-09T11:45:07;95214.38;;;28.70;46.08
6435;BME280;3250;42.694;23.278;2023-07-09T11:47:40;95213.31;;;28.32;45.79
6435;BME280;3250;42.694;23.278;2023-07-09T11:50:27;95215.50;;;28.21;47.33
6435;BME280;3250;42.694;23.278;2023-07-09T11:52:59;95198.00;;;28.19;49.96
6435;BME280;3250;42.694;23.278;2023-07-09T11:55:39;95193.41;;;28.28;46.88
6435;BME280;3250;42.694;23.278;2023-07-09T11:58:08;95186.88;;;28.37;47.86
6435;BME280;3250;42.694;23.278;2023-07-09T12:00:58;95212.28;;;28.59;46.03
6435;BME280;3250;42.694;23.278;2023-07-09T12:03:34;95200.78;;;28.53;46.16
6435;BME280;3250;42.694;23.278;2023-07-09T12:08:42;95205.72;;;28.51;46.41
6435;BME280;3250;42.694;23.278;2023-07-09T12:11:27;95198.69;;;28.50;46.69
6435;BME280;3250;42.694;23.278;2023-07-09T12:13:53;95197.75;;;28.63;45.10
6435;BME280;3250;42.694;23.278;2023-07-09T12:16:30;95195.50;;;28.48;46.53
6435;BME280;3250;42.694;23.278;2023-07-09T12:18:58;95192.78;;;28.48;48.21
6435;BME280;3250;42.694;23.278;2023-07-09T12:21:24;95192.19;;;28.60;46.58
6435;BME280;3250;42.694;23.278;2023-07-09T12:23:50;95203.81;;;28.60;46.09
6435;BME280;3250;42.694;23.278;2023-07-09T12:26:18;95180.22;;;28.52;45.57
6435;BME280;3250;42.694;23.278;2023-07-09T12:28:52;95177.50;;;28.52;44.61
6435;BME280;3250;42.694;23.278;2023-07-09T12:31:24;95174.13;;;28.46;45.29
6435;BME280;3250;42.694;23.278;2023-07-09T12:33:52;95160.13;;;28.44;45.57
6435;BME280;3250;42.694;23.278;2023-07-09T12:36:18;95168.59;;;28.51;45.84
6435;BME280;3250;42.694;23.278;2023-07-09T12:38:56;95166.50;;;28.48;44.72
6435;BME280;3250;42.694;23.278;2023-07-09T12:41:27;95179.13;;;28.62;46.46
6435;BME280;3250;42.694;23.278;2023-07-09T12:43:54;95181.06;;;28.70;45.61
6435;BME280;3250;42.694;23.278;2023-07-09T12:46:21;95165.88;;;28.60;46.20
6435;BME280;3250;42.694;23.278;2023-07-09T12:48:46;95178.34;;;28.70;45.30
6435;BME280;3250;42.694;23.278;2023-07-09T12:51:23;95168.59;;;28.69;44.60
6435;BME280;3250;42.694;23.278;2023-07-09T12:54:05;95173.72;;;28.62;46.57
6435;BME280;3250;42.694;23.278;2023-07-09T12:56:37;95167.00;;;28.50;46.61
6435;BME280;3250;42.694;23.278;2023-07-09T12:59:53;95165.06;;;28.51;44.16
6435;BME280;3250;42.694;23.278;2023-07-09T13:04:39;95179.25;;;28.48;46.21
6435;BME280;3250;42.694;23.278;2023-07-09T13:07:17;95157.41;;;28.36;46.44
6435;BME280;3250;42.694;23.278;2023-07-09T13:09:51;95162.81;;;28.36;45.45
6435;BME280;3250;42.694;23.278;2023-07-09T13:12:17;95160.75;;;28.41;45.84
6435;BME280;3250;42.694;23.278;2023-07-09T13:14:52;95169.50;;;28.38;45.73
6435;BME280;3250;42.694;23.278;2023-07-09T13:17:18;95165.19;;;28.37;44.43
6435;BME280;3250;42.694;23.278;2023-07-09T13:19:44;95179.84;;;28.28;45.84
6435;BME280;3250;42.694;23.278;2023-07-09T13:22:14;95176.09;;;28.15;47.25
6435;BME280;3250;42.694;23.278;2023-07-09T13:24:40;95162.06;;;28.04;48.25
6435;BME280;3250;42.694;23.278;2023-07-09T13:27:11;95167.78;;;28.03;49.02
6435;BME280;3250;42.694;23.278;2023-07-09T13:29:37;95164.56;;;27.92;47.75
6435;BME280;3250;42.694;23.278;2023-07-09T13:32:12;95171.25;;;27.95;50.00
6435;BME280;3250;42.694;23.278;2023-07-09T13:34:38;95185.50;;;28.09;47.89
6435;BME280;3250;42.694;23.278;2023-07-09T13:37:08;95181.75;;;28.19;47.02
6435;BME280;3250;42.694;23.278;2023-07-09T13:39:34;95174.56;;;28.23;48.45
6435;BME280;3250;42.694;23.278;2023-07-09T13:42:00;95178.25;;;28.27;48.98
6435;BME280;3250;42.694;23.278;2023-07-09T13:44:28;95170.09;;;28.18;47.49
6435;BME280;3250;42.694;23.278;2023-07-09T13:46:55;95180.59;;;28.20;46.74
6435;BME280;3250;42.694;23.278;2023-07-09T13:49:23;95187.53;;;28.03;47.73
6435;BME280;3250;42.694;23.278;2023-07-09T13:51:51;95168.69;;;27.90;47.25
6435;BME280;3250;42.694;23.278;2023-07-09T13:54:20;95185.47;;;28.00;47.63
6435;BME280;3250;42.694;23.278;2023-07-09T13:56:47;95174.91;;;27.90;47.23
6435;BME280;3250;42.694;23.278;2023-07-09T13:59:23;95184.63;;;27.91;47.28
6435;BME280;3250;42.694;23.278;2023-07-09T14:01:52;95177.91;;;27.89;47.97
6435;BME280;3250;42.694;23.278;2023-07-09T14:04:19;95182.69;;;27.83;47.72
6435;BME280;3250;42.694;23.278;2023-07-09T14:06:45;95184.91;;;27.81;48.76